Aérodrome :
LOGIN :

S'inscrire | Disclaimer

   EN    FR    IT 

 










Légende :    VFR   VFR Marginal   IFR   IFR Intensif   IFR Très Intensif
Visi : 
Plafond : 
>= 8 km
>= 3000ft
5 à 8 km
1000 à 3000 ft
1500m à 5 km
500 à 1000 ft
800 à 1500m
200 à 500 ft
< 800m
< 200 ft
Symboles :   Orages  Brouillard  Fortes neiges  Fortes précipitations  Vent > 20 kt
SIGMETs :   Divers  Orages  Givrage  Turbulence  Onde Orograph.  Cendres Volcan.







- Altitude de l'aérodrome : 17 ft
- Code IATA : MPL
- Voir les cartes d'approche


LFMT - Montpellier Méditerranée

DERNIER METAR :
  • 181800Z AUTO 12007KT 9999 BKN027 OVC046 12/09 Q1023 NOSIG

METARs EXPIRÉS :
  • 181730Z AUTO 13009KT 9999 SCT030 OVC041 12/09 Q1023 NOSIG
  • 181700Z AUTO 13009KT 9999 SCT031 OVC046 12/09 Q1023 NOSIG
  • 181630Z AUTO 13010KT 9999 FEW029 SCT035 OVC046 12/09 Q1023 NOSIG
  • 181600Z AUTO 13010KT 9999 FEW026 OVC046 13/09 Q1023 NOSIG
  • 181530Z AUTO 13010KT 9999 OVC047 13/09 Q1023 NOSIG

TAF TAF LFMT
Valide du 18 à 15h jusqu'au 19 à 15h UTC


181400Z 1815/1915 14012KT 9999 BKN045
TEMPO 1816/1908 BKN020
BECMG 1823/1901 VRB05KT
ATIS : +33 4 67 13 11 70
Pas de NOTAMs connus pour ce terrain.



MET'MAP, la Météo Aéronautique d'un coup d'oeil ! - Copyright ORBIFLY Décembre 2007 - Disclaimer

ORBIFLY MET'MAP TEAM :

Programmation & Développement : Alexandra Zaïnal
Conception & Développement : Baudouin d'Aumeries
Co-Programmation & Développement : Marc-Olivier Méhu
Soutien technique & logistique : Manuel Goepfert

Contact : metmap@orbifly.com




SOURCES & CREDITS :

   NOAA